Time;durP1;ratioP1;P1;durP2;ratioP2;P2;SDS_P1;SDS_P2;PMS_P1;PMS_P2;Temp;Humidity;BMP_temperature;BMP_pressure;BME280_temperature;BME280_humidity;BME280_pressure;Samples;Min_cycle;Max_cycle;Signal;HPM_P1;HPM_P2
2021/05/12 00:00:07;;;;;;;42.25;27.77;;;13.40;80.30;;;;;;5055692;28;20408;-75
2021/05/12 00:02:32;;;;;;;38.80;27.17;;;13.50;79.90;;;;;;5061212;28;20890;-74
2021/05/12 00:04:58;;;;;;;39.47;27.17;;;13.60;77.20;;;;;;5064199;28;20393;-75
2021/05/12 00:07:24;;;;;;;40.73;27.80;;;13.50;78.50;;;;;;5055892;28;20441;-75
2021/05/12 00:09:49;;;;;;;44.63;27.97;;;13.50;77.10;;;;;;5053458;28;20382;-75
2021/05/12 00:12:15;;;;;;;40.65;28.13;;;13.50;77.70;;;;;;5052941;28;20898;-74
2021/05/12 00:14:41;;;;;;;41.15;27.85;;;13.60;75.00;;;;;;5053079;28;20397;-74
2021/05/12 00:17:09;;;;;;;40.22;28.10;;;13.70;73.60;;;;;;5052324;28;20404;-74
2021/05/12 00:19:36;;;;;;;41.35;27.90;;;13.70;73.40;;;;;;5052022;28;20401;-73
2021/05/12 00:24:34;;;;;;;41.78;27.98;;;13.60;74.30;;;;;;5052119;28;21291;-73
2021/05/12 00:27:00;;;;;;;39.50;27.23;;;13.50;73.70;;;;;;5052479;28;20406;-74
2021/05/12 00:29:25;;;;;;;43.10;28.23;;;13.50;73.10;;;;;;5051951;28;20984;-74
2021/05/12 00:31:51;;;;;;;42.43;27.27;;;13.40;75.40;;;;;;5052125;28;20438;-72
2021/05/12 00:34:16;;;;;;;43.47;28.40;;;13.30;76.20;;;;;;5051867;28;20385;-74
2021/05/12 00:36:42;;;;;;;41.42;28.27;;;13.30;75.50;;;;;;5051584;28;20874;-75
2021/05/12 00:39:08;;;;;;;43.15;27.92;;;13.30;75.90;;;;;;5042884;28;20463;-72
2021/05/12 00:41:38;;;;;;;42.25;28.73;;;13.30;75.80;;;;;;5051086;28;20421;-76
2021/05/12 00:44:06;;;;;;;45.55;28.25;;;13.30;75.30;;;;;;5057772;28;20423;-77
2021/05/12 00:46:31;;;;;;;47.17;29.85;;;13.30;74.80;;;;;;5059188;28;20389;-74
2021/05/12 00:48:57;;;;;;;42.60;29.08;;;13.20;76.40;;;;;;5053981;28;20886;-76
2021/05/12 00:51:22;;;;;;;45.80;29.73;;;13.10;77.10;;;;;;5051841;28;20394;-75
2021/05/12 00:53:48;;;;;;;43.88;30.00;;;13.10;77.30;;;;;;5052232;28;20377;-75
2021/05/12 00:56:14;;;;;;;44.63;29.60;;;13.20;76.60;;;;;;5052333;28;20386;-75
2021/05/12 00:58:40;;;;;;;44.13;32.08;;;13.10;77.90;;;;;;5052821;28;20420;-78
2021/05/12 01:01:07;;;;;;;45.90;31.27;;;13.00;78.90;;;;;;5051037;28;20834;-76
2021/05/12 01:03:32;;;;;;;48.92;31.75;;;12.90;80.10;;;;;;5051455;28;20416;-75
2021/05/12 01:06:00;;;;;;;44.60;31.20;;;12.80;81.00;;;;;;5052900;28;20476;-76
2021/05/12 01:08:28;;;;;;;53.33;32.33;;;12.80;81.10;;;;;;5052694;28;20409;-75
2021/05/12 01:10:54;;;;;;;47.35;31.40;;;12.80;81.10;;;;;;5051955;28;20435;-76
2021/05/12 01:13:19;;;;;;;46.10;33.07;;;12.80;80.10;;;;;;5052722;28;20704;-75
2021/05/12 01:15:45;;;;;;;48.07;32.37;;;12.80;81.00;;;;;;5053024;28;21076;-76
2021/05/12 01:18:16;;;;;;;46.40;31.80;;;12.80;81.00;;;;;;5051670;28;20475;-74
2021/05/12 01:20:48;;;;;;;46.63;29.50;;;12.80;79.00;;;;;;5051739;28;20473;-76
2021/05/12 01:23:15;;;;;;;49.80;30.65;;;12.80;78.40;;;;;;5051370;28;20386;-75
2021/05/12 01:25:40;;;;;;;45.75;30.38;;;12.80;77.30;;;;;;5051941;28;20820;-74
2021/05/12 01:28:06;;;;;;;47.57;30.50;;;12.80;77.50;;;;;;5051554;28;20500;-74
2021/05/12 01:30:31;;;;;;;45.07;29.63;;;12.80;78.30;;;;;;5051115;28;20373;-76
2021/05/12 01:33:00;;;;;;;43.90;30.20;;;12.80;74.90;;;;;;5050416;28;20381;-76
2021/05/12 01:35:26;;;;;;;44.58;30.05;;;12.90;75.60;;;;;;5051137;28;20472;-76
2021/05/12 01:37:52;;;;;;;47.25;29.67;;;12.90;73.90;;;;;;5051385;28;20427;-75
2021/05/12 01:40:17;;;;;;;44.53;28.40;;;12.90;72.30;;;;;;5051085;28;20397;-76
2021/05/12 01:42:43;;;;;;;45.87;29.50;;;13.00;71.20;;;;;;5050711;28;20428;-75
2021/05/12 01:45:10;;;;;;;39.57;28.40;;;13.00;71.60;;;;;;5051039;28;20393;-74
2021/05/12 01:47:36;;;;;;;42.20;28.65;;;12.90;72.40;;;;;;5050539;28;20410;-74
2021/05/12 01:50:06;;;;;;;50.50;29.50;;;12.90;72.60;;;;;;5050679;28;20743;-75
2021/05/12 01:52:44;;;;;;;43.45;29.13;;;12.90;70.50;;;;;;5050665;28;20378;-76
2021/05/12 01:55:12;;;;;;;46.58;29.95;;;13.00;70.30;;;;;;5064087;28;20924;-75
2021/05/12 01:57:44;;;;;;;42.75;28.25;;;12.90;70.40;;;;;;5050691;28;20393;-74
2021/05/12 02:00:19;;;;;;;45.55;29.83;;;13.00;70.40;;;;;;5051011;28;20393;-74
2021/05/12 02:02:44;;;;;;;42.67;28.63;;;13.00;71.20;;;;;;5050263;28;20386;-76
2021/05/12 02:05:10;;;;;;;48.35;30.08;;;13.00;70.40;;;;;;5052967;28;20397;-76
2021/05/12 02:07:36;;;;;;;38.00;27.63;;;13.00;70.20;;;;;;5051038;28;20405;-77
2021/05/12 02:10:03;;;;;;;46.00;29.27;;;12.90;70.70;;;;;;5050464;28;20452;-75
2021/05/12 02:12:28;;;;;;;40.20;27.35;;;12.90;69.60;;;;;;5051053;28;20389;-74
2021/05/12 02:14:54;;;;;;;46.60;28.20;;;12.90;69.80;;;;;;5050522;28;20878;-74
2021/05/12 02:17:19;;;;;;;45.87;28.20;;;12.90;69.50;;;;;;5050512;28;20388;-74
2021/05/12 02:19:46;;;;;;;44.33;28.60;;;12.90;69.10;;;;;;5049822;28;20393;-74
2021/05/12 02:22:11;;;;;;;38.53;27.10;;;12.90;68.00;;;;;;5049701;28;20703;-74
2021/05/12 02:24:37;;;;;;;42.25;27.80;;;13.00;67.30;;;;;;5065325;28;20932;-75
2021/05/12 02:27:03;;;;;;;49.87;28.10;;;12.90;68.00;;;;;;5050193;28;20393;-75
2021/05/12 02:29:29;;;;;;;40.75;28.10;;;12.80;68.80;;;;;;5050145;28;20451;-74
2021/05/12 02:31:54;;;;;;;39.95;26.50;;;12.90;68.30;;;;;;5050543;28;20393;-75
2021/05/12 02:34:20;;;;;;;46.35;26.95;;;12.90;67.60;;;;;;5049924;28;20393;-74
2021/05/12 02:36:46;;;;;;;39.00;25.73;;;12.90;66.40;;;;;;5050125;28;20439;-75
2021/05/12 02:39:11;;;;;;;39.27;26.40;;;13.00;63.90;;;;;;5050280;28;20416;-75
2021/05/12 02:41:37;;;;;;;40.27;26.00;;;12.90;64.30;;;;;;5050227;28;20401;-75
2021/05/12 02:44:02;;;;;;;41.50;26.85;;;13.00;63.60;;;;;;5049812;28;20385;-74
2021/05/12 02:46:28;;;;;;;39.55;25.92;;;12.90;64.40;;;;;;5053842;28;20413;-75
2021/05/12 02:48:53;;;;;;;40.95;26.45;;;12.80;66.50;;;;;;5054129;28;20941;-75
2021/05/12 02:51:19;;;;;;;46.60;26.90;;;12.80;67.30;;;;;;5053688;28;20416;-75
2021/05/12 02:53:45;;;;;;;41.27;25.90;;;12.80;66.60;;;;;;5053752;28;20495;-74
2021/05/12 02:56:10;;;;;;;41.30;25.67;;;12.80;66.30;;;;;;5053903;28;20386;-75
2021/05/12 02:58:36;;;;;;;40.22;25.67;;;12.80;66.20;;;;;;5054149;28;20476;-75
2021/05/12 03:01:01;;;;;;;40.70;24.80;;;12.80;65.50;;;;;;5053996;28;20882;-75
2021/05/12 03:03:27;;;;;;;41.17;24.90;;;12.80;65.00;;;;;;5053560;28;20774;-75
2021/05/12 03:05:52;;;;;;;39.60;24.47;;;13.00;62.40;;;;;;5052796;28;20389;-75
2021/05/12 03:08:18;;;;;;;38.70;24.73;;;12.90;62.90;;;;;;5054608;28;20401;-75
2021/05/12 03:10:44;;;;;;;38.60;24.40;;;12.90;63.20;;;;;;5053850;28;20431;-75
2021/05/12 03:13:09;;;;;;;37.88;23.50;;;13.00;62.00;;;;;;5053524;28;20381;-75
2021/05/12 03:15:36;;;;;;;36.95;23.00;;;13.00;61.40;;;;;;5053750;28;20463;-76
2021/05/12 03:18:03;;;;;;;36.97;22.83;;;13.00;62.20;;;;;;5053723;28;20389;-75
2021/05/12 03:20:30;;;;;;;36.20;23.48;;;13.10;61.90;;;;;;5053547;28;20436;-76
2021/05/12 03:22:56;;;;;;;34.17;22.98;;;13.00;63.70;;;;;;5053581;28;20403;-75
2021/05/12 03:25:23;;;;;;;36.92;22.85;;;13.00;63.40;;;;;;5053407;28;20396;-75
2021/05/12 03:27:49;;;;;;;35.20;22.17;;;13.00;63.80;;;;;;5053439;28;20416;-74
2021/05/12 03:30:19;;;;;;;36.55;21.38;;;13.20;61.40;;;;;;5053373;28;20384;-73
2021/05/12 03:32:44;;;;;;;34.13;22.15;;;13.20;62.80;;;;;;5033595;28;20421;-73
2021/05/12 03:35:11;;;;;;;34.25;20.40;;;13.10;62.20;;;;;;5049431;28;20472;-74
2021/05/12 03:37:37;;;;;;;36.37;20.90;;;13.20;61.80;;;;;;5053255;28;20413;-73
2021/05/12 03:40:04;;;;;;;36.63;21.55;;;13.10;61.90;;;;;;5053299;28;20385;-75
2021/05/12 03:42:30;;;;;;;37.10;21.10;;;13.10;63.20;;;;;;5053483;28;20389;-74
2021/05/12 03:44:56;;;;;;;35.65;20.92;;;13.10;64.10;;;;;;5053438;28;20893;-74
2021/05/12 03:47:22;;;;;;;34.43;20.60;;;13.00;64.40;;;;;;5053348;28;20404;-74
2021/05/12 03:52:24;;;;;;;33.78;20.17;;;13.10;64.20;;;;;;5047693;28;20418;-77
2021/05/12 03:54:50;;;;;;;29.42;19.60;;;13.10;63.80;;;;;;5047900;28;20446;-77
2021/05/12 03:57:18;;;;;;;40.27;20.00;;;13.10;64.40;;;;;;5046754;28;20391;-77
2021/05/12 03:59:43;;;;;;;33.50;20.58;;;13.00;64.80;;;;;;5032665;28;20479;-77
2021/05/12 04:02:09;;;;;;;33.40;20.20;;;12.90;67.00;;;;;;5054641;28;20387;-77
2021/05/12 04:04:35;;;;;;;31.20;19.80;;;12.90;66.60;;;;;;5047194;28;20485;-77
2021/05/12 04:07:00;;;;;;;32.78;18.80;;;13.00;65.20;;;;;;5046662;28;20417;-77
2021/05/12 04:09:26;;;;;;;31.08;19.10;;;13.10;65.10;;;;;;5036380;28;20396;-77
2021/05/12 04:11:51;;;;;;;29.67;18.90;;;13.10;64.50;;;;;;5031035;28;20387;-77
2021/05/12 04:14:17;;;;;;;30.70;18.90;;;13.00;66.40;;;;;;5044575;28;20391;-76
2021/05/12 04:16:42;;;;;;;30.43;18.80;;;13.00;66.30;;;;;;5042840;28;20826;-79
2021/05/12 04:19:08;;;;;;;31.43;18.97;;;13.00;66.10;;;;;;5042111;28;20394;-77
2021/05/12 04:21:34;;;;;;;32.97;19.85;;;13.10;65.00;;;;;;5035945;28;20459;-77
2021/05/12 04:23:59;;;;;;;37.10;19.93;;;13.10;64.50;;;;;;5035069;28;20395;-77
2021/05/12 04:26:25;;;;;;;26.75;17.63;;;13.10;65.00;;;;;;5035317;28;20401;-78
2021/05/12 04:28:51;;;;;;;31.92;19.02;;;13.00;66.50;;;;;;5034561;28;20403;-77
2021/05/12 04:31:16;;;;;;;34.85;19.02;;;13.10;65.80;;;;;;5035274;28;20445;-78
2021/05/12 04:33:42;;;;;;;31.65;19.10;;;13.10;65.30;;;;;;5023013;28;20396;-78
2021/05/12 04:36:08;;;;;;;32.10;19.20;;;13.20;65.60;;;;;;5043601;28;20414;-78
2021/05/12 04:38:33;;;;;;;36.17;19.63;;;13.40;61.70;;;;;;5040000;28;20391;-78
2021/05/12 04:40:59;;;;;;;31.03;19.77;;;13.40;61.30;;;;;;5038778;28;20486;-78
2021/05/12 04:43:26;;;;;;;30.00;19.20;;;13.40;62.70;;;;;;5035601;28;20383;-78
2021/05/12 04:45:52;;;;;;;35.08;20.60;;;13.40;64.20;;;;;;5034979;28;20485;-77
2021/05/12 04:48:17;;;;;;;29.88;19.50;;;13.50;62.90;;;;;;5035017;28;20399;-76
2021/05/12 04:50:43;;;;;;;33.17;19.90;;;13.50;63.20;;;;;;5033584;28;20387;-77
2021/05/12 04:53:09;;;;;;;33.50;19.70;;;13.60;60.90;;;;;;5033983;28;20407;-77
2021/05/12 04:55:34;;;;;;;31.67;19.90;;;13.70;61.00;;;;;;5033234;28;20432;-77
2021/05/12 04:58:00;;;;;;;33.00;21.10;;;13.70;60.10;;;;;;5006899;28;20400;-77
2021/05/12 05:00:26;;;;;;;33.25;20.90;;;13.70;59.60;;;;;;5024924;28;20381;-77
2021/05/12 05:02:53;;;;;;;33.42;21.27;;;13.80;59.60;;;;;;5029132;28;20385;-78
2021/05/12 05:05:20;;;;;;;30.65;22.05;;;13.70;59.10;;;;;;5048874;28;20446;-76
2021/05/12 05:07:46;;;;;;;34.20;21.77;;;13.70;59.20;;;;;;5047244;28;20411;-77
2021/05/12 05:10:12;;;;;;;33.40;21.47;;;13.70;60.70;;;;;;5041652;28;20537;-78
2021/05/12 05:12:38;;;;;;;36.53;22.05;;;13.80;59.10;;;;;;5035144;28;20395;-77
2021/05/12 05:15:04;;;;;;;40.20;22.23;;;13.80;59.10;;;;;;5017871;28;20429;-76
2021/05/12 05:17:31;;;;;;;32.03;21.20;;;14.00;57.70;;;;;;5036075;28;20425;-78
2021/05/12 05:19:58;;;;;;;36.78;20.42;;;14.00;57.50;;;;;;5036136;28;20751;-78
2021/05/12 05:22:26;;;;;;;32.42;20.55;;;14.00;57.80;;;;;;5036638;28;20383;-77
2021/05/12 05:24:52;;;;;;;30.92;20.48;;;14.00;58.50;;;;;;5033899;28;20957;-76
2021/05/12 05:27:18;;;;;;;28.58;19.13;;;14.10;57.00;;;;;;5033799;28;20415;-77
2021/05/12 05:29:43;;;;;;;34.85;20.80;;;14.20;56.30;;;;;;5034647;28;20403;-77
2021/05/12 05:32:09;;;;;;;31.73;20.23;;;14.30;56.50;;;;;;5033226;28;20375;-78
2021/05/12 05:34:35;;;;;;;30.87;18.37;;;14.40;56.10;;;;;;5033938;28;20441;-77
2021/05/12 05:37:00;;;;;;;24.60;17.50;;;14.60;54.80;;;;;;5036668;28;20410;-77
2021/05/12 05:39:34;;;;;;;33.60;17.17;;;14.80;51.30;;;;;;5039122;28;20474;-77
2021/05/12 05:42:01;;;;;;;24.50;16.65;;;14.70;51.00;;;;;;5020503;28;20482;-78
2021/05/12 05:44:26;;;;;;;26.08;17.00;;;14.70;51.30;;;;;;5038262;28;20398;-77
2021/05/12 05:46:52;;;;;;;28.10;16.85;;;14.70;50.10;;;;;;5017024;28;20387;-77
2021/05/12 05:49:17;;;;;;;25.55;15.65;;;14.70;50.60;;;;;;5016429;28;20383;-78
2021/05/12 05:51:43;;;;;;;25.20;15.90;;;14.70;49.90;;;;;;5035071;28;20426;-76
2021/05/12 05:54:09;;;;;;;25.10;15.60;;;14.60;50.10;;;;;;5034484;28;20390;-78
2021/05/12 05:56:34;;;;;;;22.73;14.03;;;14.70;49.80;;;;;;5021377;28;20424;-77
2021/05/12 05:59:00;;;;;;;24.30;14.80;;;14.80;48.60;;;;;;5014510;28;20385;-78
2021/05/12 06:01:25;;;;;;;29.25;15.73;;;14.80;49.00;;;;;;5017847;28;20539;-78
2021/05/12 06:03:51;;;;;;;23.13;15.27;;;14.90;48.80;;;;;;5032550;28;20430;-77
2021/05/12 06:06:16;;;;;;;25.80;15.03;;;14.90;46.90;;;;;;5038017;28;20414;-78
2021/05/12 06:08:42;;;;;;;29.50;16.30;;;15.00;47.90;;;;;;5017792;28;20415;-81
2021/05/12 06:11:09;;;;;;;24.08;15.32;;;15.00;47.50;;;;;;5039051;28;20383;-79
2021/05/12 06:13:35;;;;;;;24.55;15.30;;;15.00;49.00;;;;;;5038388;28;20393;-80
2021/05/12 06:16:03;;;;;;;28.80;15.73;;;15.10;46.90;;;;;;5022791;28;20899;-80
2021/05/12 06:18:29;;;;;;;25.83;15.20;;;15.10;46.90;;;;;;5022042;28;20399;-80
2021/05/12 06:20:54;;;;;;;23.30;14.40;;;15.20;47.80;;;;;;5039342;28;20395;-80
2021/05/12 06:23:20;;;;;;;25.77;14.63;;;15.40;44.20;;;;;;5040003;28;20398;-80
2021/05/12 06:25:46;;;;;;;25.90;15.10;;;15.60;43.10;;;;;;5039583;28;20387;-80
2021/05/12 06:28:12;;;;;;;24.40;14.40;;;15.50;44.80;;;;;;5007233;28;20410;-80
2021/05/12 06:30:37;;;;;;;26.37;15.40;;;15.70;43.10;;;;;;5021379;28;20387;-81
2021/05/12 06:33:07;;;;;;;20.73;13.87;;;15.60;42.00;;;;;;5036224;28;20394;-79
2021/05/12 06:35:32;;;;;;;26.20;15.50;;;15.20;44.90;;;;;;5036579;28;20406;-79
2021/05/12 06:37:58;;;;;;;25.07;15.30;;;14.90;47.80;;;;;;5035389;28;20399;-79
2021/05/12 06:40:23;;;;;;;26.00;15.60;;;14.80;48.40;;;;;;5036011;28;20775;-80
2021/05/12 06:42:49;;;;;;;27.97;14.70;;;14.60;50.40;;;;;;5036927;28;20429;-77
2021/05/12 06:45:15;;;;;;;24.65;16.08;;;14.50;52.70;;;;;;5035957;28;20437;-79
2021/05/12 06:47:41;;;;;;;21.75;15.82;;;14.40;53.00;;;;;;5017409;28;20498;-79
2021/05/12 06:50:07;;;;;;;23.40;16.23;;;14.50;53.10;;;;;;5044636;28;20395;-78
2021/05/12 06:52:33;;;;;;;22.20;14.90;;;14.40;54.00;;;;;;5033339;28;20778;-79
2021/05/12 06:54:58;;;;;;;28.65;14.80;;;14.50;53.00;;;;;;5045596;28;20387;-79
2021/05/12 06:57:24;;;;;;;26.43;14.90;;;14.50;52.70;;;;;;5045733;28;20795;-77
2021/05/12 06:59:50;;;;;;;22.33;14.87;;;14.60;53.00;;;;;;5043825;28;20875;-78
2021/05/12 07:02:15;;;;;;;23.93;14.70;;;14.70;50.80;;;;;;5037918;28;20395;-78
2021/05/12 07:04:41;;;;;;;22.00;14.20;;;14.80;50.10;;;;;;5033753;28;20379;-77
2021/05/12 07:07:07;;;;;;;26.27;14.40;;;14.80;50.20;;;;;;5020117;28;20429;-78
2021/05/12 07:09:32;;;;;;;24.70;13.43;;;14.90;49.20;;;;;;5043184;28;20383;-77
2021/05/12 07:11:58;;;;;;;19.23;12.90;;;15.10;48.10;;;;;;5021011;28;20402;-76
2021/05/12 07:14:23;;;;;;;21.70;12.60;;;15.20;45.80;;;;;;5052818;28;20417;-76
2021/05/12 07:16:52;;;;;;;24.30;13.10;;;15.60;42.80;;;;;;5051619;28;20387;-77
2021/05/12 07:19:18;;;;;;;20.30;12.30;;;15.70;43.10;;;;;;5049404;28;20394;-77
2021/05/12 07:21:45;;;;;;;17.83;11.60;;;15.90;42.20;;;;;;5049296;28;20403;-78
2021/05/12 07:24:11;;;;;;;18.60;11.40;;;16.30;38.40;;;;;;5033587;28;20463;-78
2021/05/12 07:26:36;;;;;;;21.60;13.13;;;16.60;38.20;;;;;;5047522;28;20406;-77
2021/05/12 07:29:02;;;;;;;16.97;12.57;;;16.80;35.80;;;;;;5041478;28;20565;-80
2021/05/12 07:31:28;;;;;;;19.83;12.27;;;16.90;36.70;;;;;;5043107;28;20468;-79
2021/05/12 07:33:54;;;;;;;20.20;12.90;;;17.20;33.70;;;;;;5047001;28;20398;-79
2021/05/12 07:36:19;;;;;;;19.25;11.88;;;17.30;32.70;;;;;;5049375;28;20406;-78
2021/05/12 07:38:45;;;;;;;19.65;12.75;;;17.50;32.70;;;;;;5048445;28;20793;-80
2021/05/12 07:41:11;;;;;;;21.20;13.00;;;17.70;32.90;;;;;;5046300;28;20436;-78
2021/05/12 07:43:36;;;;;;;21.00;12.80;;;17.90;31.10;;;;;;5044973;28;20391;-79
2021/05/12 07:46:03;;;;;;;21.50;12.17;;;18.20;30.00;;;;;;5037229;28;20401;-80
2021/05/12 07:48:28;;;;;;;22.13;11.65;;;18.20;29.10;;;;;;5017245;28;20410;-80
2021/05/12 07:50:54;;;;;;;20.42;10.70;;;18.00;30.60;;;;;;5023939;28;20391;-79
2021/05/12 07:53:22;;;;;;;18.73;12.25;;;17.70;30.60;;;;;;5055248;28;20398;-79
2021/05/12 07:55:47;;;;;;;21.50;12.25;;;17.60;30.80;;;;;;5046503;28;20457;-77
2021/05/12 07:58:13;;;;;;;20.02;11.63;;;17.50;31.60;;;;;;5041175;28;20402;-77
2021/05/12 08:00:41;;;;;;;21.02;11.07;;;17.40;30.30;;;;;;5018940;28;20438;-77
2021/05/12 08:03:07;;;;;;;18.48;11.38;;;17.50;29.90;;;;;;5020627;28;20811;-77
2021/05/12 08:05:33;;;;;;;20.45;12.20;;;17.50;30.20;;;;;;5038156;28;20395;-77
2021/05/12 08:07:58;;;;;;;18.00;11.35;;;17.70;29.40;;;;;;5044964;28;20407;-77
2021/05/12 08:10:24;;;;;;;15.68;10.80;;;17.70;29.20;;;;;;5022050;28;20403;-77
2021/05/12 08:12:50;;;;;;;21.52;11.70;;;17.70;30.60;;;;;;5038422;28;20406;-77
2021/05/12 08:15:15;;;;;;;18.87;12.20;;;17.70;30.20;;;;;;5021349;28;20412;-78
2021/05/12 08:17:41;;;;;;;18.67;12.03;;;17.80;29.10;;;;;;5034878;28;20383;-76
2021/05/12 08:20:07;;;;;;;20.42;12.40;;;17.60;30.70;;;;;;5028026;28;20403;-76
2021/05/12 08:22:33;;;;;;;18.80;12.30;;;17.50;30.50;;;;;;5036750;28;20387;-77
2021/05/12 08:24:59;;;;;;;15.77;11.07;;;17.60;28.40;;;;;;5036488;28;20874;-77
2021/05/12 08:27:24;;;;;;;16.90;11.83;;;18.10;27.20;;;;;;5037421;28;20743;-77
2021/05/12 08:29:50;;;;;;;17.77;12.10;;;18.30;28.20;;;;;;5027155;28;20399;-77
2021/05/12 08:32:17;;;;;;;19.00;12.93;;;18.20;27.60;;;;;;5006996;28;20400;-76
2021/05/12 08:34:43;;;;;;;19.75;13.50;;;18.10;28.30;;;;;;5014923;28;20379;-77
2021/05/12 08:37:09;;;;;;;20.05;12.57;;;17.80;29.10;;;;;;5044524;28;20453;-77
2021/05/12 08:39:35;;;;;;;17.88;12.82;;;17.60;30.20;;;;;;5026307;28;20803;-77
2021/05/12 08:42:01;;;;;;;20.83;13.52;;;17.60;29.50;;;;;;5043356;28;20400;-75
2021/05/12 08:44:27;;;;;;;23.38;13.20;;;17.50;30.60;;;;;;5043277;28;20391;-77
2021/05/12 08:46:53;;;;;;;22.42;13.43;;;17.30;32.40;;;;;;5034477;28;20400;-77
2021/05/12 08:49:19;;;;;;;21.17;12.30;;;17.20;32.30;;;;;;5031407;28;20414;-78
2021/05/12 08:51:45;;;;;;;23.17;11.87;;;17.00;32.40;;;;;;5031602;28;20482;-76
2021/05/12 08:54:12;;;;;;;24.70;13.05;;;16.90;32.80;;;;;;5016878;28;20453;-76
2021/05/12 08:56:38;;;;;;;16.27;12.00;;;16.80;33.00;;;;;;5016048;28;20419;-79
2021/05/12 08:59:04;;;;;;;19.48;12.95;;;17.00;33.80;;;;;;5027846;28;20871;-78
2021/05/12 09:01:30;;;;;;;16.63;12.63;;;17.10;33.20;;;;;;5031209;28;20407;-78
2021/05/12 09:03:55;;;;;;;20.43;13.20;;;17.00;33.00;;;;;;5016097;28;20412;-79
2021/05/12 09:06:22;;;;;;;18.93;13.40;;;16.90;33.80;;;;;;5038386;28;20402;-78
2021/05/12 09:08:49;;;;;;;15.27;12.75;;;16.80;33.90;;;;;;5045060;28;20407;-81
2021/05/12 09:11:15;;;;;;;17.27;11.30;;;17.00;32.90;;;;;;5022098;28;20895;-78
2021/05/12 09:13:46;;;;;;;17.70;10.80;;;17.00;30.70;;;;;;5038342;28;20722;-77
2021/05/12 09:16:23;;;;;;;17.55;10.45;;;17.30;28.70;;;;;;5034482;28;21159;-76
2021/05/12 09:19:02;;;;;;;17.33;11.30;;;17.20;30.70;;;;;;5019188;28;20401;-76
2021/05/12 09:22:02;;;;;;;16.25;11.95;;;17.20;30.50;;;;;;5024483;28;20398;-77
2021/05/12 09:24:36;;;;;;;15.05;11.30;;;17.20;30.70;;;;;;5020751;28;20391;-76
2021/05/12 09:27:08;;;;;;;16.73;10.75;;;17.20;30.40;;;;;;5031702;28;20395;-76
2021/05/12 09:29:40;;;;;;;14.82;10.35;;;17.50;29.40;;;;;;5013907;28;20397;-76
2021/05/12 09:32:10;;;;;;;17.55;11.65;;;17.70;28.00;;;;;;5019085;28;20449;-75
2021/05/12 09:35:03;;;;;;;19.52;10.95;;;17.60;30.10;;;;;;5039491;28;20460;-76
2021/05/12 09:37:28;;;;;;;16.05;10.52;;;17.80;27.10;;;;;;5020486;28;20407;-76
2021/05/12 09:39:55;;;;;;;16.27;11.48;;;18.00;25.60;;;;;;5025389;28;20490;-76
2021/05/12 09:42:23;;;;;;;19.08;10.77;;;18.00;26.10;;;;;;5032594;28;20645;-77
2021/05/12 09:45:11;;;;;;;13.55;10.65;;;18.30;24.30;;;;;;5036874;28;20425;-76
2021/05/12 09:47:37;;;;;;;17.30;10.40;;;18.60;21.60;;;;;;5033788;28;20422;-76
2021/05/12 09:50:19;;;;;;;18.40;11.65;;;18.90;21.70;;;;;;4999634;28;20444;-75
2021/05/12 09:52:45;;;;;;;15.33;10.43;;;19.40;20.70;;;;;;5069324;23;20991;-74
2021/05/12 09:55:13;;;;;;;15.47;10.03;;;19.60;19.40;;;;;;5050529;28;20385;-74
2021/05/12 09:58:03;;;;;;;18.08;9.95;;;19.70;19.80;;;;;;5050121;28;20412;-74
2021/05/12 10:00:37;;;;;;;16.25;9.02;;;19.90;18.30;;;;;;5050754;28;20400;-74
2021/05/12 10:03:06;;;;;;;15.33;9.10;;;20.00;17.50;;;;;;5029707;28;20755;-76
2021/05/12 10:05:50;;;;;;;12.00;8.82;;;20.00;18.00;;;;;;5029172;28;20407;-73
2021/05/12 10:08:22;;;;;;;14.40;8.30;;;20.00;17.80;;;;;;5029880;28;20442;-75
2021/05/12 10:11:00;;;;;;;16.35;8.70;;;20.00;17.50;;;;;;5030656;28;20390;-74
2021/05/12 10:13:26;;;;;;;16.98;8.38;;;19.80;18.00;;;;;;5031265;28;20783;-74
2021/05/12 10:15:52;;;;;;;15.57;8.70;;;19.20;18.20;;;;;;5029681;28;20493;-74
2021/05/12 10:18:17;;;;;;;14.02;7.80;;;19.00;19.60;;;;;;5029410;28;20890;-73
2021/05/12 10:20:43;;;;;;;17.42;6.80;;;18.90;18.70;;;;;;5025808;28;20914;-74
2021/05/12 10:23:09;;;;;;;10.95;7.10;;;18.80;18.00;;;;;;5031334;28;20387;-74
2021/05/12 10:25:37;;;;;;;13.13;6.80;;;18.90;18.30;;;;;;5030460;28;20425;-76
2021/05/12 10:28:04;;;;;;;17.50;7.82;;;18.90;18.50;;;;;;5024998;28;20924;-76
2021/05/12 10:30:29;;;;;;;14.02;8.13;;;18.60;19.20;;;;;;5028640;28;20403;-74
2021/05/12 10:32:59;;;;;;;14.13;7.70;;;18.60;20.10;;;;;;5022088;28;20442;-73
2021/05/12 10:35:38;;;;;;;13.23;7.30;;;18.70;20.20;;;;;;5024718;28;20796;-76
2021/05/12 10:38:04;;;;;;;18.70;7.47;;;18.80;18.80;;;;;;5019467;28;20487;-75
2021/05/12 10:40:38;;;;;;;11.57;6.47;;;18.70;18.20;;;;;;5010372;28;20400;-74
2021/05/12 10:48:46;;;;;;;14.15;8.07;;;19.50;18.60;;;;;;5021617;28;20447;-73
2021/05/12 10:51:31;;;;;;;12.80;6.40;;;19.90;15.90;;;;;;5018275;28;20502;-74
2021/05/12 10:54:06;;;;;;;11.70;6.70;;;20.00;14.50;;;;;;5020371;28;20428;-75
2021/05/12 10:56:39;;;;;;;13.30;6.50;;;19.80;14.80;;;;;;5028224;28;20399;-73
2021/05/12 10:59:07;;;;;;;16.38;6.78;;;19.30;14.90;;;;;;5028936;28;20403;-75
2021/05/12 11:01:52;;;;;;;11.80;5.30;;;18.90;15.60;;;;;;5029363;28;20847;-76
2021/05/12 11:04:21;;;;;;;12.65;5.80;;;18.90;16.20;;;;;;5029175;28;20399;-75
2021/05/12 11:06:53;;;;;;;9.05;6.40;;;19.10;17.00;;;;;;5033607;28;20486;-74
2021/05/12 11:09:22;;;;;;;13.18;6.80;;;19.00;16.20;;;;;;5034316;28;20425;-74
2021/05/12 11:11:47;;;;;;;10.88;5.90;;;19.10;16.20;;;;;;5050141;28;20395;-74
2021/05/12 11:14:29;;;;;;;10.60;6.65;;;19.20;15.60;;;;;;5033195;28;20437;-75
2021/05/12 11:17:02;;;;;;;10.50;6.90;;;19.60;15.70;;;;;;5033912;28;20401;-74
2021/05/12 11:19:40;;;;;;;10.27;6.15;;;19.70;14.50;;;;;;5032005;28;20410;-74
2021/05/12 11:33:29;;;;;;;12.40;6.60;;;19.20;15.30;;;;;;5034346;28;21067;-74
2021/05/12 11:36:04;;;;;;;7.20;5.70;;;19.10;16.20;;;;;;5026362;28;20483;-74
2021/05/12 11:38:31;;;;;;;9.80;6.00;;;19.20;14.50;;;;;;5017024;28;20397;-76
2021/05/12 11:41:06;;;;;;;9.70;6.13;;;19.20;14.10;;;;;;5015980;28;20493;-75
2021/05/12 11:43:34;;;;;;;10.95;5.75;;;19.30;14.10;;;;;;5032009;28;20482;-77
2021/05/12 11:46:11;;;;;;;10.15;6.10;;;19.50;14.00;;;;;;5031310;28;20409;-73
2021/05/12 11:49:02;;;;;;;8.90;6.00;;;19.30;13.70;;;;;;5020351;28;20411;-75
2021/05/12 11:51:39;;;;;;;7.90;4.57;;;19.40;13.80;;;;;;5025191;28;20403;-76
2021/05/12 11:54:20;;;;;;;10.38;5.00;;;19.50;11.40;;;;;;5030054;28;20399;-73
2021/05/12 11:56:49;;;;;;;11.63;6.57;;;19.80;12.10;;;;;;5031899;28;20414;-74
2021/05/12 11:59:22;;;;;;;10.38;5.80;;;19.80;12.40;;;;;;5032775;28;20391;-75
2021/05/12 12:01:55;;;;;;;9.67;5.53;;;19.80;11.70;;;;;;5012319;28;20389;-75
2021/05/12 12:05:21;;;;;;;7.15;5.20;;;19.90;11.00;;;;;;5029465;28;20415;-74
2021/05/12 12:07:15;;;;;;;6.57;5.30;;;20.20;10.90;;;;;;5018802;28;20459;-75
2021/05/12 12:09:41;;;;;;;6.57;4.37;;;20.40;9.90;;;;;;5032348;28;20383;-74
2021/05/12 12:12:07;;;;;;;6.80;4.10;;;20.50;8.60;;;;;;5013205;28;20427;-75
2021/05/12 12:14:36;;;;;;;6.03;4.15;;;20.80;7.60;;;;;;5028582;28;20395;-75
2021/05/12 12:17:10;;;;;;;6.18;3.80;;;20.80;7.20;;;;;;5027600;28;20551;-73
2021/05/12 12:19:35;;;;;;;9.83;5.47;;;21.10;8.20;;;;;;5013314;28;20499;-76
2021/05/12 12:22:02;;;;;;;10.87;5.03;;;20.70;9.20;;;;;;5031073;28;20450;-75
2021/05/12 12:24:29;;;;;;;7.35;4.80;;;20.60;10.30;;;;;;5032339;28;20529;-75
2021/05/12 12:26:58;;;;;;;9.03;4.80;;;20.90;9.60;;;;;;5032313;28;20395;-75
2021/05/12 12:29:28;;;;;;;9.27;5.57;;;20.80;8.60;;;;;;5032605;28;20510;-75
2021/05/12 12:32:15;;;;;;;8.20;4.78;;;21.00;8.10;;;;;;5030708;28;20868;-74
2021/05/12 12:34:44;;;;;;;8.43;4.93;;;21.00;8.50;;;;;;5022029;28;20533;-76
2021/05/12 12:37:17;;;;;;;11.05;5.50;;;21.00;8.20;;;;;;5021480;28;20401;-73
2021/05/12 12:42:22;;;;;;;8.17;5.57;;;21.30;7.10;;;;;;5027880;28;20387;-75
2021/05/12 12:44:48;;;;;;;11.40;5.07;;;21.30;7.20;;;;;;5031901;28;20386;-73
2021/05/12 12:47:19;;;;;;;8.20;5.50;;;20.90;8.10;;;;;;5031279;28;20403;-75
2021/05/12 12:49:57;;;;;;;7.85;4.53;;;20.80;8.20;;;;;;5030970;28;20478;-74
2021/05/12 12:52:30;;;;;;;7.57;3.97;;;20.80;7.50;;;;;;5017429;28;20411;-73
2021/05/12 12:55:04;;;;;;;7.80;4.70;;;20.80;7.50;;;;;;5010732;28;20400;-73
2021/05/12 12:57:57;;;;;;;6.38;4.32;;;20.90;7.30;;;;;;5020695;28;20400;-73